EW6790 Weather Reports


time (UTC)temp
F
wind
direction
speed
knots
gust
knots
rain 1hr
in
rain 24hr
in
rain mn
in
humidity
%
barometer
mb
20220930153007 60 120 6.1 13.0 0.00 0.00 0.00 59 1021.3
20220930151504 59 121 5.2 11.3 0.00 0.00 0.00 63 1021.4
20220930150101 58 140 7.8 12.2 0.00 0.00 0.00 63 1021.8
20220930144603 58 165 6.1 13.0 0.00 0.00 0.00 65 1022.0
20220930143038 57 132 8.7 13.0 0.00 0.00 0.00 66 1022.0
20220930141552 55 162 7.0 11.3 0.00 0.00 0.00 69 1022.2
20220930140019 54 175 7.0 11.3 0.00 0.00 0.00 71 1022.2
20220930134509 53 171 6.1 11.3 0.00 0.00 0.00 72 1022.2
20220930133210 52 180 7.0 10.4 0.00 0.00 0.00 74 1022.2
20220930131602 52 176 7.0 11.3 0.00 0.00 0.00 74 1022.1
20220930130026 52 183 7.8 10.4 0.00 0.00 0.00 75 1022.1
20220930124524 51 200 8.7 13.9 0.00 0.00 0.00 76 1021.9
20220930123007 51 198 7.0 11.3 0.00 0.00 0.00 77 1021.9
20220930121505 50 183 8.7 13.0 0.00 0.00 0.00 77 1021.9
20220930120050 50 189 10.4 15.6 0.00 0.00 0.00 77 1021.8
20220930114544 50 159 13.0 15.6 0.00 0.00 0.00 78 1021.8
20220930113024 50 166 9.6 14.8 0.00 0.00 0.00 78 1022.2
20220930111523 50 141 9.6 14.8 0.00 0.00 0.00 78 1022.4
20220930110101 50 172 8.7 13.9 0.00 0.00 0.00 79 1022.8
20220930104611 49 174 7.8 12.2 0.00 0.00 0.00 80 1022.9
20220930103039 49 172 2.6 7.8 0.00 0.00 0.00 81 1022.8
20220930101537 49 100 2.6 8.7 0.00 0.00 0.00 82 1022.8
20220930100018 49 127 4.3 7.0 0.00 0.00 0.00 81 1022.8
20220930094515 48 133 3.5 7.0 0.00 0.00 0.00 82 1022.5
20220930093104 48 127 0.9 4.3 0.00 0.00 0.00 83 1022.3
20220930091556 48 104 2.6 7.0 0.00 0.00 0.00 82 1022.2
20220930090033 48 224 1.7 3.5 0.00 0.00 0.00 81 1022.2
20220930084531 49 146 1.7 5.2 0.00 0.00 0.00 80 1022.2
20220930083011 49 160 1.7 7.8 0.00 0.00 0.00 79 1022.2
20220930081521 49 89 5.2 9.6 0.00 0.00 0.00 79 1021.9
20220930080115 50 106 4.3 9.6 0.00 0.00 0.00 78 1022.1
20220930074549 50 101 4.3 10.4 0.00 0.00 0.00 77 1022.1
20220930073034 50 116 3.5 9.6 0.00 0.00 0.00 76 1022.1
20220930071525 51 193 7.8 13.9 0.00 0.00 0.00 74 1022.2
20220930070004 51 133 7.8 13.0 0.00 0.00 0.00 74 1022.5
20220930064509 52 184 5.2 11.3 0.00 0.00 0.00 73 1022.7
20220930063109 52 171 9.6 13.0 0.00 0.00 0.00 72 1022.5
20220930061545 52 165 7.8 11.3 0.00 0.00 0.00 73 1022.3
20220930060059 51 131 6.1 11.3 0.00 0.00 0.00 74 1022.4
20220930054527 51 146 5.2 10.4 0.00 0.00 0.00 73 1022.3
20220930053028 51 218 5.2 10.4 0.00 0.00 0.00 72 1022.4
20220930051507 52 115 7.0 10.4 0.00 0.00 0.00 70 1022.2
20220930050007 52 205 7.0 13.0 0.00 0.00 0.00 70 1022.3
20220930044549 52 173 7.8 13.9 0.00 0.00 0.00 70 1022.3
20220930043053 52 119 5.2 11.3 0.00 0.00 0.00 70 1022.5
20220930041541 51 90 3.5 7.8 0.00 0.00 0.00 70 1022.6
20220930040030 52 182 3.5 7.8 0.00 0.00 0.00 69 1022.7
20220930034519 52 113 2.6 8.7 0.00 0.00 0.00 68 1022.7
20220930033032 53 106 3.5 7.8 0.00 0.00 0.00 66 1022.7
20220930031559 53 155 3.5 10.4 0.00 0.00 0.00 65 1022.8
20220930030058 54 170 2.6 7.0 0.00 0.00 0.00 63 1022.7
20220930024633 55 155 3.5 8.7 0.00 0.00 0.00 61 1022.8
20220930023104 55 160 4.3 9.6 0.00 0.00 0.00 59 1022.7
20220930021556 56 170 4.3 9.6 0.00 0.00 0.00 56 1022.6
20220930020125 56 178 5.2 12.2 0.00 0.00 0.00 56 1022.5
20220930014601 56 160 3.5 7.8 0.00 0.00 0.00 55 1022.3
20220930013055 57 103 2.6 7.0 0.00 0.00 0.00 54 1022.3
20220930011548 58 206 3.5 12.2 0.00 0.00 0.00 52 1022.1
20220930010044 58 156 3.5 7.8 0.00 0.00 0.00 51 1022.0
20220930004520 58 94 2.6 5.2 0.00 0.00 0.00 52 1022.0
20220930003017 59 150 1.7 4.3 0.00 0.00 0.00 51 1022.1
20220930001630 60 117 1.7 4.3 0.00 0.00 0.00 48 1022.1
20220930000108 62 130 2.6 6.1 0.00 0.00 0.00 45 1022.1
20220929234546 65 162 4.3 9.6 0.00 0.00 0.00 42 1022.2
20220929233049 67 124 4.3 11.3 0.00 0.00 0.00 39 1022.2
20220929231519 69 112 6.1 11.3 0.00 0.00 0.00 36 1022.4
20220929230020 69 158 10.4 17.4 0.00 0.00 0.00 34 1022.4
20220929224633 70 169 11.3 19.1 0.00 0.00 0.00 33 1022.5
20220929223058 70 120 13.0 18.2 0.00 0.00 0.00 32 1022.8
20220929221539 70 179 12.2 20.0 0.00 0.00 0.00 32 1022.9
20220929220039 70 166 13.0 19.1 0.00 0.00 0.00 32 1023.0
20220929214525 70 174 13.0 20.9 0.00 0.00 0.00 31 1023.1
20220929213022 71 105 9.6 16.5 0.00 0.00 0.00 32 1023.4
20220929211523 71 176 13.0 19.1 0.00 0.00 0.00 31 1023.6
20220929210017 70 171 13.0 19.1 0.00 0.00 0.00 32 1023.6
20220929204517 70 199 13.0 19.1 0.00 0.00 0.00 32 1023.9
20220929203012 69 159 14.8 20.9 0.00 0.00 0.00 32 1023.9
20220929201511 70 176 11.3 20.0 0.00 0.00 0.00 34 1024.1
20220929200007 69 231 13.9 21.7 0.00 0.00 0.00 34 1024.3
20220929194502 68 183 13.0 20.9 0.00 0.00 0.00 36 1024.4
20220929193145 68 188 9.6 22.6 0.00 0.00 0.00 37 1024.8
20220929191548 67 162 12.2 20.9 0.00 0.00 0.00 38 1025.0
20220929190035 67 173 13.9 20.9 0.00 0.00 0.00 37 1025.3
20220929184517 66 191 13.9 21.7 0.00 0.00 0.00 37 1025.7
20220929183012 66 199 16.5 23.5 0.00 0.00 0.00 39 1025.9
20220929181551 65 158 13.9 19.1 0.00 0.00 0.00 42 1026.1
20220929180053 64 196 11.3 18.2 0.00 0.00 0.00 45 1026.2
20220929174539 63 181 14.8 24.3 0.00 0.00 0.00 47 1026.4
20220929173033 63 184 14.8 21.7 0.00 0.00 0.00 47 1026.9
20220929171504 62 210 13.0 20.9 0.00 0.00 0.00 51 1027.2
20220929170115 62 167 14.8 21.7 0.00 0.00 0.00 52 1027.4
20220929164542 61 176 13.0 21.7 0.00 0.00 0.00 54 1027.7
20220929163038 60 221 15.6 21.7 0.00 0.00 0.00 54 1027.8
20220929161545 59 168 13.9 22.6 0.00 0.00 0.00 57 1028.0
20220929160029 59 186 18.2 24.3 0.00 0.00 0.00 56 1028.3
20220929154643 59 183 14.8 20.0 0.00 0.00 0.00 58 1028.4